Time;durP1;ratioP1;P1;durP2;ratioP2;P2;SDS_P1;SDS_P2;PMS_P1;PMS_P2;Temp;Humidity;BMP_temperature;BMP_pressure;BME280_temperature;BME280_humidity;BME280_pressure;Samples;Min_cycle;Max_cycle;Signal;HPM_P1;HPM_P2
2021/12/11 00:01:36;;;;;;;;;2.50;2.50;;;;;6.44;64.89;100749.94;5036885;28;45488;-49
2021/12/11 00:04:06;;;;;;;;;3.50;1.25;;;;;6.44;64.91;100747.28;5036432;28;45520;-48
2021/12/11 00:06:36;;;;;;;;;3.00;1.00;;;;;6.44;65.03;100755.22;5036347;28;45463;-45
2021/12/11 00:09:13;;;;;;;;;3.50;2.00;;;;;6.44;64.74;100759.66;5036449;28;45404;-55
2021/12/11 00:11:41;;;;;;;;;6.00;3.50;;;;;6.43;65.16;100756.19;5036484;28;45534;-46
2021/12/11 00:14:09;;;;;;;;;5.00;3.50;;;;;6.43;64.97;100768.56;5036096;28;45393;-46
2021/12/11 00:16:36;;;;;;;;;2.00;2.00;;;;;6.42;64.83;100772.16;5036200;28;45437;-43
2021/12/11 00:19:08;;;;;;;;;6.00;2.50;;;;;6.43;64.87;100773.84;5018578;28;45739;-50
2021/12/11 00:21:34;;;;;;;;;9.00;3.00;;;;;6.42;65.27;100773.00;5036518;28;45436;-48
2021/12/11 00:24:05;;;;;;;;;2.00;2.00;;;;;6.41;65.20;100779.25;5035298;28;46228;-52
2021/12/11 00:26:35;;;;;;;;;1.50;1.50;;;;;6.37;65.41;100775.19;5036017;28;45407;-51
2021/12/11 00:29:02;;;;;;;;;1.00;1.00;;;;;6.42;65.51;100796.78;5036403;28;45437;-45
2021/12/11 00:31:30;;;;;;;;;5.00;1.75;;;;;6.40;65.12;100788.13;5036605;28;45357;-51
2021/12/11 00:33:57;;;;;;;;;4.00;4.00;;;;;6.41;65.19;100787.19;5036069;28;46319;-54
2021/12/11 00:36:31;;;;;;;;;1.75;1.75;;;;;6.39;65.17;100799.66;5036016;28;45461;-53
2021/12/11 00:39:10;;;;;;;;;1.00;1.00;;;;;6.42;64.86;100809.16;5036247;28;45321;-52
2021/12/11 00:41:36;;;;;;;;;1.00;1.00;;;;;6.39;65.49;100807.59;5036113;28;45442;-49
2021/12/11 00:44:02;;;;;;;;;1.00;1.00;;;;;6.42;65.77;100814.44;5035906;28;45367;-48
2021/12/11 00:46:30;;;;;;;;;2.00;1.25;;;;;6.39;65.61;100818.16;5035870;28;45456;-47
2021/12/11 00:49:07;;;;;;;;;2.00;1.75;;;;;6.39;65.18;100826.09;5036077;28;45424;-53
2021/12/11 00:51:32;;;;;;;;;1.00;1.00;;;;;6.40;65.13;100821.63;5036215;28;45523;-44
2021/12/11 00:53:59;;;;;;;;;4.75;1.00;;;;;6.39;65.10;100833.16;5035796;28;46288;-43
2021/12/11 00:56:29;;;;;;;;;2.25;1.75;;;;;6.35;65.52;100829.91;5035859;28;45620;-47
2021/12/11 00:58:59;;;;;;;;;3.50;3.00;;;;;6.38;65.37;100840.25;5036202;28;45476;-45
2021/12/11 01:01:31;;;;;;;;;1.25;1.00;;;;;6.37;65.51;100840.38;5036266;28;45331;-47
2021/12/11 01:04:17;;;;;;;;;1.00;1.00;;;;;6.36;65.26;100849.25;5035543;28;47354;-56
2021/12/11 01:07:16;;;;;;;;;2.25;2.25;;;;;6.35;64.95;100855.50;5035914;28;46008;-43
2021/12/11 01:09:54;;;;;;;;;1.75;1.75;;;;;6.33;65.05;100860.06;4974383;28;45488;-45
2021/12/11 01:12:34;;;;;;;;;1.00;1.00;;;;;6.32;64.92;100868.94;4977667;28;45540;-49
2021/12/11 01:15:13;;;;;;;;;5.50;2.00;;;;;6.31;65.12;100872.53;4977408;28;45550;-43
2021/12/11 01:17:59;;;;;;;;;4.25;4.25;;;;;6.28;65.54;100871.00;4977765;28;45509;-45
2021/12/11 01:20:35;;;;;;;;;4.50;2.00;;;;;6.29;65.50;100882.41;4977604;28;45695;-45
2021/12/11 01:23:17;;;;;;;;;2.00;2.00;;;;;6.28;65.36;100883.34;4977727;28;45406;-52
2021/12/11 01:25:43;;;;;;;;;4.50;1.75;;;;;6.27;65.67;100884.31;4977213;28;46283;-46
2021/12/11 01:28:09;;;;;;;;;1.00;1.00;;;;;6.26;65.92;100894.03;4977388;28;45875;-59
2021/12/11 01:30:41;;;;;;;;;6.25;2.00;;;;;6.23;65.83;100894.25;4977600;28;45495;-58
2021/12/11 01:33:09;;;;;;;;;4.00;1.75;;;;;6.25;65.91;100908.19;4977714;28;45488;-56
2021/12/11 01:35:34;;;;;;;;;2.00;1.25;;;;;6.25;65.89;100900.28;4977292;28;47112;-57
2021/12/11 01:38:08;;;;;;;;;4.75;2.00;;;;;6.24;65.90;100917.09;4977081;28;45446;-57
2021/12/11 01:40:35;;;;;;;;;8.00;4.00;;;;;6.20;65.41;100916.47;4977332;28;45348;-51
2021/12/11 01:43:04;;;;;;;;;5.00;1.75;;;;;6.21;65.66;100923.44;4977423;28;45372;-50
2021/12/11 01:45:32;;;;;;;;;1.75;1.00;;;;;6.21;65.81;100920.78;4979852;28;46798;-57
2021/12/11 01:47:57;;;;;;;;;7.00;1.00;;;;;6.19;66.15;100925.38;5038507;28;45388;-58
2021/12/11 01:50:33;;;;;;;;;3.00;2.00;;;;;6.19;66.06;100940.34;5038777;28;45414;-53
2021/12/11 01:53:09;;;;;;;;;8.00;2.00;;;;;6.17;66.27;100934.34;5039100;28;45558;-55
2021/12/11 01:55:45;;;;;;;;;6.00;2.50;;;;;6.18;66.39;100941.31;5038472;28;45478;-55
2021/12/11 01:58:15;;;;;;;;;1.25;1.25;;;;;6.17;65.89;100937.81;5037742;28;45392;-54
2021/12/11 02:00:49;;;;;;;;;4.25;1.00;;;;;6.17;66.40;100936.97;5038731;28;45366;-55
2021/12/11 02:03:20;;;;;;;;;2.50;2.00;;;;;6.14;66.40;100939.84;5038762;28;45529;-46
2021/12/11 02:05:47;;;;;;;;;4.00;1.50;;;;;6.13;66.01;100944.28;5038361;28;45421;-50
2021/12/11 02:08:17;;;;;;;;;1.00;1.00;;;;;6.14;66.79;100953.88;5038377;28;45481;-46
2021/12/11 02:10:53;;;;;;;;;6.00;4.00;;;;;6.13;66.33;100952.22;5038423;28;45393;-56
2021/12/11 02:13:30;;;;;;;;;3.50;2.00;;;;;6.11;66.63;100954.13;5038482;28;45440;-45
2021/12/11 02:15:56;;;;;;;;;1.00;1.00;;;;;6.10;66.55;100963.00;5038256;28;47054;-52
2021/12/11 02:18:34;;;;;;;;;2.00;0.00;;;;;6.10;66.18;100970.09;5038374;28;45508;-45
2021/12/11 02:21:13;;;;;;;;;4.75;2.75;;;;;6.10;66.10;100968.28;5038434;28;45488;-53
2021/12/11 02:23:39;;;;;;;;;7.50;2.00;;;;;6.10;66.58;100976.19;5038488;28;45394;-54
2021/12/11 02:26:09;;;;;;;;;3.00;3.00;;;;;6.10;66.85;100983.28;5038022;28;47385;-47
2021/12/11 02:28:40;;;;;;;;;4.00;1.00;;;;;6.09;66.73;100987.72;5036682;28;45444;-57
2021/12/11 02:31:17;;;;;;;;;5.00;1.25;;;;;6.09;66.50;100992.16;5038137;28;45476;-57
2021/12/11 02:33:58;;;;;;;;;1.00;1.00;;;;;6.08;66.46;100995.78;5038362;28;45418;-57
2021/12/11 02:36:31;;;;;;;;;1.00;1.00;;;;;6.08;66.74;100998.41;5037790;28;46230;-58
2021/12/11 02:39:14;;;;;;;;;1.25;1.25;;;;;6.07;66.71;100989.66;5038181;28;45436;-53
2021/12/11 02:41:49;;;;;;;;;2.00;2.00;;;;;6.08;66.60;100987.84;5038206;28;45730;-47
2021/12/11 02:44:30;;;;;;;;;4.00;2.00;;;;;6.07;67.07;101004.63;5037928;28;45314;-51
2021/12/11 02:47:16;;;;;;;;;0.00;0.00;;;;;6.06;66.92;101001.16;5037630;28;46229;-58
2021/12/11 02:49:50;;;;;;;;;1.75;1.25;;;;;6.04;66.65;101005.72;5037821;28;45538;-52
2021/12/11 02:52:31;;;;;;;;;1.25;0.75;;;;;6.05;67.04;101003.91;5037914;28;45433;-42
2021/12/11 02:55:06;;;;;;;;;0.00;0.00;;;;;6.06;66.83;101008.22;5038089;28;45440;-55
2021/12/11 02:57:37;;;;;;;;;5.00;1.00;;;;;6.04;67.22;101011.00;5037441;28;47363;-44
2021/12/11 03:00:22;;;;;;;;;2.25;2.25;;;;;5.94;66.48;101009.94;5036381;28;45588;-44
2021/12/11 03:03:00;;;;;;;;;2.50;2.50;;;;;6.01;67.32;101016.50;5037599;28;45500;-44
2021/12/11 03:05:35;;;;;;;;;5.00;3.00;;;;;6.01;66.68;101032.34;5037638;28;45341;-44
2021/12/11 03:08:01;;;;;;;;;6.00;2.00;;;;;6.02;67.17;101034.00;5037356;28;46090;-44
2021/12/11 03:10:27;;;;;;;;;4.75;1.00;;;;;6.02;67.57;101033.16;5037547;28;45423;-45
2021/12/11 03:12:55;;;;;;;;;1.00;1.00;;;;;5.99;66.99;101035.09;5037184;28;45377;-53
2021/12/11 03:15:20;;;;;;;;;5.00;2.00;;;;;5.96;67.31;101037.09;5037588;28;45421;-56
2021/12/11 03:17:46;;;;;;;;;2.50;1.00;;;;;6.00;67.21;101041.22;5037122;28;47190;-43
2021/12/11 03:20:15;;;;;;;;;0.00;0.00;;;;;5.99;67.17;101050.09;5037501;28;45627;-54
2021/12/11 03:22:43;;;;;;;;;4.00;1.00;;;;;5.99;67.24;101052.75;5037522;28;45785;-43
2021/12/11 03:25:12;;;;;;;;;2.00;2.00;;;;;5.97;67.65;101055.47;5037550;28;45377;-47
2021/12/11 03:27:38;;;;;;;;;1.00;1.00;;;;;5.96;66.82;101069.63;5037052;28;46397;-46
2021/12/11 03:30:08;;;;;;;;;3.00;2.00;;;;;5.98;67.12;101069.50;5037159;28;45413;-56
2021/12/11 03:32:34;;;;;;;;;4.00;1.75;;;;;5.90;67.49;101067.41;5037228;28;45338;-53
2021/12/11 03:35:00;;;;;;;;;1.00;1.00;;;;;5.96;67.47;101080.19;5036964;28;45472;-53
2021/12/11 03:37:27;;;;;;;;;1.50;1.00;;;;;5.94;67.71;101083.88;5036977;28;46150;-43
2021/12/11 03:39:54;;;;;;;;;0.00;0.00;;;;;5.96;67.03;101082.00;5035689;28;45447;-43
2021/12/11 03:42:28;;;;;;;;;2.50;1.00;;;;;5.96;67.63;101087.28;5037235;28;45465;-52
2021/12/11 03:44:54;;;;;;;;;4.50;1.25;;;;;5.93;67.24;101090.97;5036989;28;45404;-54
2021/12/11 03:47:25;;;;;;;;;1.50;1.50;;;;;5.87;67.55;101085.25;5036877;28;45415;-49
2021/12/11 03:49:51;;;;;;;;;1.75;1.75;;;;;5.95;67.75;101104.09;5037020;28;45480;-50
2021/12/11 03:52:17;;;;;;;;;2.00;0.50;;;;;5.95;67.44;101107.56;5036898;28;45357;-44
2021/12/11 03:54:47;;;;;;;;;2.00;1.00;;;;;5.96;67.62;101113.69;5037006;28;45588;-48
2021/12/11 03:57:16;;;;;;;;;0.75;0.75;;;;;5.95;67.37;101122.56;5036858;28;46203;-52
2021/12/11 03:59:48;;;;;;;;;1.75;1.00;;;;;5.95;68.04;101119.94;5036633;28;45402;-44
2021/12/11 04:02:19;;;;;;;;;1.00;1.00;;;;;5.58;67.92;101058.25;5036699;28;45488;-48
2021/12/11 04:04:49;;;;;;;;;4.00;1.50;;;;;5.90;68.19;101111.44;5036722;28;45405;-43
2021/12/11 04:07:18;;;;;;;;;2.50;1.00;;;;;5.95;67.84;101117.28;5036725;28;46565;-45
2021/12/11 04:09:45;;;;;;;;;7.75;3.50;;;;;5.94;67.74;101126.13;5036664;28;45372;-56
2021/12/11 04:12:12;;;;;;;;;1.00;0.75;;;;;5.93;67.95;101116.53;5037005;28;45334;-50
2021/12/11 04:14:41;;;;;;;;;1.00;1.00;;;;;5.94;67.49;101120.84;5036460;28;45454;-53
2021/12/11 04:17:09;;;;;;;;;2.00;2.00;;;;;5.93;67.92;101122.66;5036429;28;46551;-47
2021/12/11 04:19:36;;;;;;;;;1.00;1.00;;;;;5.89;67.59;101122.94;5036754;28;45446;-48
2021/12/11 04:22:04;;;;;;;;;6.50;2.50;;;;;5.92;68.10;101131.53;5036464;28;45483;-57
2021/12/11 04:24:33;;;;;;;;;2.50;0.25;;;;;5.93;68.38;101135.03;5036682;28;45500;-52
2021/12/11 04:27:03;;;;;;;;;1.00;1.00;;;;;5.91;68.41;101131.63;5036388;28;46108;-54
2021/12/11 04:29:29;;;;;;;;;4.00;0.75;;;;;5.89;68.47;101133.50;5036157;28;45549;-45
2021/12/11 04:31:56;;;;;;;;;1.00;1.00;;;;;5.92;68.62;101144.75;5036575;28;45380;-52
2021/12/11 04:34:23;;;;;;;;;1.00;1.00;;;;;5.91;68.30;101142.19;5036629;28;45464;-54
2021/12/11 04:36:56;;;;;;;;;7.00;2.00;;;;;5.91;68.37;101148.31;5036032;28;47208;-49
2021/12/11 04:39:23;;;;;;;;;3.25;1.00;;;;;5.91;68.40;101152.75;5035769;28;45353;-55
2021/12/11 04:41:58;;;;;;;;;0.25;0.25;;;;;5.90;68.18;101158.94;5036278;28;45385;-46
2021/12/11 04:44:36;;;;;;;;;3.50;3.50;;;;;5.90;68.33;101161.59;5036336;28;45442;-50
2021/12/11 04:47:15;;;;;;;;;1.25;1.25;;;;;5.89;68.86;101166.03;5038969;28;46137;-54
2021/12/11 04:49:54;;;;;;;;;3.00;0.75;;;;;5.89;68.22;101162.56;5039704;28;45456;-42
2021/12/11 04:52:34;;;;;;;;;4.00;1.00;;;;;5.85;68.07;101169.84;5039777;28;45455;-50
2021/12/11 04:58:04;;;;;;;;;1.00;0.75;;;;;5.82;68.89;101169.22;5039595;28;45414;-48
2021/12/11 05:11:41;;;;;;;;;1.00;1.00;;;;;5.81;68.58;101173.63;5039295;28;45491;-49
2021/12/11 05:14:12;;;;;;;;;7.25;3.50;;;;;5.76;68.52;101168.69;5037801;28;45432;-45
2021/12/11 05:16:38;;;;;;;;;2.00;2.00;;;;;5.77;69.03;101177.44;5039570;28;45480;-50
2021/12/11 05:19:03;;;;;;;;;4.50;2.00;;;;;5.79;69.29;101174.72;5039094;28;45435;-53
2021/12/11 05:21:29;;;;;;;;;3.50;2.00;;;;;5.79;68.47;101174.72;5039335;28;45427;-52
2021/12/11 05:23:55;;;;;;;;;2.00;1.50;;;;;5.78;69.18;101179.16;5039246;28;45396;-47
2021/12/11 05:26:22;;;;;;;;;1.50;1.00;;;;;5.79;68.81;101185.28;5039663;28;45350;-49
2021/12/11 05:28:47;;;;;;;;;1.75;1.75;;;;;5.70;68.69;101177.03;5039117;28;46095;-51
2021/12/11 05:31:13;;;;;;;;;2.75;1.25;;;;;5.76;69.19;101189.78;5038959;28;45444;-53
2021/12/11 05:33:40;;;;;;;;;0.25;0.00;;;;;5.75;68.82;101200.47;5039229;28;45417;-48
2021/12/11 05:36:07;;;;;;;;;1.50;1.50;;;;;5.76;69.10;101204.78;5039477;28;45450;-59
2021/12/11 05:38:37;;;;;;;;;4.00;2.00;;;;;5.76;68.53;101215.34;5039054;28;46032;-56
2021/12/11 05:41:04;;;;;;;;;2.00;2.00;;;;;5.72;69.14;101217.34;5038885;28;45429;-52
2021/12/11 05:43:32;;;;;;;;;2.25;1.00;;;;;5.73;67.93;101224.34;5039103;28;45489;-46
2021/12/11 05:45:58;;;;;;;;;1.00;1.00;;;;;5.72;68.77;101222.63;5038861;28;45433;-57
2021/12/11 05:48:24;;;;;;;;;4.50;4.50;;;;;5.72;68.57;101237.63;5038775;28;46034;-58
2021/12/11 05:50:55;;;;;;;;;7.00;1.50;;;;;5.70;69.05;101243.03;5038751;28;45444;-58
2021/12/11 05:53:22;;;;;;;;;2.00;2.00;;;;;5.70;69.07;101247.47;5038689;28;45472;-54
2021/12/11 05:55:50;;;;;;;;;1.00;1.00;;;;;5.57;68.77;101239.50;5038839;28;45350;-55
2021/12/11 05:58:27;;;;;;;;;5.00;4.25;;;;;5.66;68.24;101259.16;5037859;28;46174;-54
2021/12/11 06:00:53;;;;;;;;;4.00;1.50;;;;;5.66;68.14;101260.00;5038508;28;45464;-55
2021/12/11 06:03:19;;;;;;;;;0.00;0.00;;;;;5.65;68.58;101268.88;5038660;28;45485;-56
2021/12/11 06:05:45;;;;;;;;;4.00;2.25;;;;;5.65;69.45;101278.59;5038897;28;45496;-54
2021/12/11 06:08:12;;;;;;;;;5.00;2.00;;;;;5.63;69.26;101281.31;5038498;28;46092;-56
2021/12/11 06:10:40;;;;;;;;;3.75;2.00;;;;;5.61;69.41;101288.50;5037868;28;45367;-46
2021/12/11 06:13:08;;;;;;;;;0.50;0.50;;;;;5.62;68.84;101287.56;5038633;28;45379;-56
2021/12/11 06:15:34;;;;;;;;;0.75;0.75;;;;;5.61;69.25;101287.66;5038426;28;45464;-53
2021/12/11 06:18:02;;;;;;;;;5.75;1.75;;;;;5.57;68.87;101287.03;5038359;28;46926;-57
2021/12/11 06:20:30;;;;;;;;;2.50;1.00;;;;;5.61;68.72;101298.22;5038410;28;45493;-43
2021/12/11 06:22:55;;;;;;;;;0.75;0.75;;;;;5.55;69.17;101288.91;5038505;28;45472;-52
2021/12/11 06:25:30;;;;;;;;;1.75;0.75;;;;;5.58;69.45;101296.63;5038283;28;45389;-45
2021/12/11 06:27:55;;;;;;;;;3.50;1.50;;;;;5.55;69.10;101299.44;5037475;28;46428;-43
2021/12/11 06:30:22;;;;;;;;;4.00;1.00;;;;;5.60;69.29;101307.91;5037903;28;45538;-49
2021/12/11 06:32:49;;;;;;;;;4.00;4.00;;;;;5.58;69.52;101309.81;5038382;28;45434;-51
2021/12/11 06:35:19;;;;;;;;;4.25;1.25;;;;;5.59;69.21;101315.94;5038417;28;45436;-57
2021/12/11 06:37:44;;;;;;;;;6.00;4.00;;;;;5.57;68.80;101305.50;5038184;28;45375;-52
2021/12/11 06:40:11;;;;;;;;;2.00;2.00;;;;;5.48;68.97;101300.81;5038322;28;45418;-44
2021/12/11 06:42:36;;;;;;;;;4.75;2.00;;;;;5.56;68.55;101316.13;5038531;28;45405;-45
2021/12/11 06:45:03;;;;;;;;;4.25;4.25;;;;;5.53;68.83;101319.84;5037953;28;45546;-58
2021/12/11 06:47:28;;;;;;;;;8.25;3.50;;;;;5.48;68.77;101327.22;5037144;28;47130;-45
2021/12/11 06:49:54;;;;;;;;;4.00;4.00;;;;;5.50;69.06;101338.50;5037592;28;45436;-43
2021/12/11 06:52:22;;;;;;;;;5.75;4.50;;;;;5.46;69.43;101340.47;5037565;28;45569;-53
2021/12/11 06:54:49;;;;;;;;;2.00;2.00;;;;;5.47;69.57;101352.72;5036417;28;45432;-46
2021/12/11 06:57:15;;;;;;;;;6.00;1.00;;;;;5.43;69.22;101353.03;5037209;28;47427;-43
2021/12/11 06:59:40;;;;;;;;;6.25;2.00;;;;;5.44;69.85;101352.94;5037262;28;46189;-46
2021/12/11 07:02:06;;;;;;;;;5.50;1.00;;;;;5.45;69.34;101364.34;5037517;28;45379;-49
2021/12/11 07:04:32;;;;;;;;;4.00;2.00;;;;;5.45;69.53;101369.63;5037256;28;45582;-52
2021/12/11 07:06:58;;;;;;;;;6.00;3.00;;;;;5.36;69.66;101359.66;5036856;28;45390;-43
2021/12/11 07:09:26;;;;;;;;;1.25;1.25;;;;;5.45;69.17;101377.53;5034935;28;45525;-45
2021/12/11 07:11:53;;;;;;;;;6.75;3.00;;;;;5.45;70.03;101382.81;5037256;28;45540;-44
2021/12/11 07:14:22;;;;;;;;;2.00;2.00;;;;;5.44;70.38;101381.13;5037174;28;45445;-43
2021/12/11 07:16:48;;;;;;;;;7.75;2.00;;;;;5.43;69.43;101393.44;5036616;28;45519;-47
2021/12/11 07:19:14;;;;;;;;;4.50;4.00;;;;;5.44;70.38;101392.53;5036631;28;45448;-46
2021/12/11 07:21:40;;;;;;;;;7.75;1.50;;;;;5.44;69.77;101407.50;5037061;28;45921;-44
2021/12/11 07:24:09;;;;;;;;;2.50;2.50;;;;;5.44;69.77;101408.34;5036927;28;45195;-48
2021/12/11 07:26:35;;;;;;;;;4.75;3.50;;;;;5.44;69.42;101418.91;5036440;28;47256;-45
2021/12/11 07:29:20;;;;;;;;;5.50;4.00;;;;;5.45;69.41;101415.31;5036546;28;45587;-45
2021/12/11 07:31:48;;;;;;;;;6.00;4.00;;;;;5.46;70.06;101421.44;5036744;28;45484;-55
2021/12/11 07:34:15;;;;;;;;;6.25;4.75;;;;;5.45;70.28;101412.69;5036900;28;45428;-49
2021/12/11 07:36:41;;;;;;;;;2.50;2.00;;;;;5.47;70.49;101423.13;5036677;28;47368;-43
2021/12/11 07:39:12;;;;;;;;;10.00;4.00;;;;;5.48;70.05;101414.28;5036330;28;45488;-48
2021/12/11 07:41:37;;;;;;;;;2.00;2.00;;;;;5.50;69.29;101421.13;5036557;28;46148;-43
2021/12/11 07:44:03;;;;;;;;;2.75;1.50;;;;;5.51;69.62;101422.84;5036506;28;45632;-45
2021/12/11 07:46:30;;;;;;;;;5.00;2.00;;;;;5.52;69.83;101431.63;5036400;28;46258;-56
2021/12/11 07:48:57;;;;;;;;;3.00;2.00;;;;;5.54;69.35;101437.63;5034994;28;45512;-57
2021/12/11 07:51:25;;;;;;;;;3.50;1.75;;;;;5.58;69.77;101446.22;5018524;28;45458;-49
2021/12/11 07:53:52;;;;;;;;;2.00;2.00;;;;;5.60;69.87;101446.94;5036513;28;45396;-47
2021/12/11 07:56:18;;;;;;;;;6.00;3.00;;;;;5.63;69.67;101459.97;5036288;28;46251;-57
2021/12/11 07:58:45;;;;;;;;;4.00;4.00;;;;;5.67;69.64;101461.47;5036393;28;45464;-52
2021/12/11 08:01:11;;;;;;;;;4.00;1.50;;;;;5.69;69.32;101463.06;5034596;28;46085;-51
2021/12/11 08:03:37;;;;;;;;;7.75;4.00;;;;;5.72;69.54;101459.38;5036343;28;45456;-51
2021/12/11 08:06:05;;;;;;;;;4.00;4.00;;;;;5.74;69.24;101465.41;5035136;28;45448;-43
2021/12/11 08:08:31;;;;;;;;;8.25;7.00;;;;;5.77;69.29;101459.91;5036022;28;45441;-43
2021/12/11 08:11:03;;;;;;;;;1.00;1.00;;;;;5.81;69.53;101471.97;5018199;28;45553;-51
2021/12/11 08:13:28;;;;;;;;;4.00;4.00;;;;;5.75;69.62;101461.81;5036045;28;45550;-47
2021/12/11 08:15:56;;;;;;;;;12.50;5.00;;;;;5.88;69.20;101477.72;5035843;28;46066;-45
2021/12/11 08:18:22;;;;;;;;;5.00;3.00;;;;;5.87;69.14;101481.31;5035799;28;45618;-43
2021/12/11 08:20:48;;;;;;;;;4.50;4.50;;;;;5.92;68.84;101493.28;5035716;28;45521;-54
2021/12/11 08:23:16;;;;;;;;;3.00;3.00;;;;;5.95;68.50;101502.84;5036043;28;45516;-50
2021/12/11 08:25:41;;;;;;;;;6.75;2.25;;;;;5.97;68.78;101506.22;5035618;28;46106;-45
2021/12/11 08:28:10;;;;;;;;;3.50;3.50;;;;;6.01;68.51;101502.41;5035629;28;45433;-48
2021/12/11 08:30:40;;;;;;;;;8.00;4.00;;;;;6.05;68.09;101501.28;5035856;28;45370;-55
2021/12/11 08:33:05;;;;;;;;;5.00;4.25;;;;;6.09;68.79;101508.06;5035907;28;45551;-44
2021/12/11 08:35:31;;;;;;;;;7.75;4.75;;;;;6.14;68.29;101513.88;5035596;28;46068;-43
2021/12/11 08:37:57;;;;;;;;;9.00;5.00;;;;;6.20;68.28;101508.22;5035637;28;45374;-42
2021/12/11 08:40:27;;;;;;;;;2.00;2.00;;;;;6.24;67.91;101512.38;5035643;28;45486;-44
2021/12/11 08:42:54;;;;;;;;;5.00;2.00;;;;;6.35;67.80;101516.94;5035943;28;45451;-53
2021/12/11 08:45:25;;;;;;;;;8.25;8.25;;;;;6.43;67.51;101508.50;5035436;28;46293;-45
2021/12/11 08:47:57;;;;;;;;;4.00;4.00;;;;;6.56;67.43;101506.72;5035279;28;46286;-45
2021/12/11 08:50:25;;;;;;;;;7.00;5.00;;;;;6.68;66.92;101507.72;5035392;28;45544;-50
2021/12/11 08:52:52;;;;;;;;;4.00;4.00;;;;;6.80;66.55;101514.00;5035048;28;45886;-55
2021/12/11 08:55:36;;;;;;;;;5.75;5.75;;;;;6.95;66.14;101515.56;5034530;28;45718;-49
2021/12/11 08:58:06;;;;;;;;;5.00;4.00;;;;;7.13;65.95;101522.28;5034686;28;45560;-53
2021/12/11 09:00:58;;;;;;;;;6.00;5.00;;;;;7.35;65.89;101528.72;5034824;28;45495;-43
2021/12/11 09:03:45;;;;;;;;;6.50;3.50;;;;;7.51;64.94;101534.66;5034911;28;45553;-45
2021/12/11 09:06:36;;;;;;;;;8.75;4.50;;;;;7.79;64.10;101533.53;5034462;28;46195;-52
2021/12/11 09:09:02;;;;;;;;;8.50;5.50;;;;;8.09;63.23;101534.94;5034511;28;45740;-43
2021/12/11 09:11:36;;;;;;;;;8.50;5.00;;;;;8.66;62.48;101529.81;5034596;28;45488;-50
2021/12/11 09:14:07;;;;;;;;;7.50;7.50;;;;;9.30;60.89;101537.34;5034619;28;45545;-44
2021/12/11 09:16:38;;;;;;;;;5.50;4.50;;;;;9.82;60.02;101527.06;5034114;28;46006;-46
2021/12/11 09:19:13;;;;;;;;;7.00;3.00;;;;;10.40;57.98;101541.84;5034397;28;45474;-43
2021/12/11 09:22:03;;;;;;;;;6.00;3.67;;;;;11.09;56.29;101549.41;5034574;28;45507;-45
2021/12/11 09:24:54;;;;;;;;;6.33;3.00;;;;;11.66;54.81;101553.31;5034669;28;45457;-42
2021/12/11 09:27:22;;;;;;;;;5.33;5.00;;;;;12.45;53.18;101556.09;5034116;28;45476;-44
2021/12/11 09:29:54;;;;;;;;;6.00;3.00;;;;;13.21;51.48;101553.50;5034531;28;45465;-43
2021/12/11 09:32:29;;;;;;;;;8.33;3.00;;;;;14.18;49.37;101569.19;5036407;28;45523;-53
2021/12/11 09:35:07;;;;;;;;;8.00;6.67;;;;;13.63;48.81;101569.19;5038046;28;45504;-45
2021/12/11 09:37:33;;;;;;;;;7.00;4.00;;;;;12.88;49.36;101578.03;5038162;28;46269;-52
2021/12/11 09:40:07;;;;;;;;;6.33;3.00;;;;;12.26;51.44;101582.72;5038036;28;45471;-51
2021/12/11 09:42:32;;;;;;;;;11.33;5.67;;;;;11.82;52.02;101587.50;5036302;28;45441;-53
2021/12/11 09:45:12;;;;;;;;;3.00;3.00;;;;;11.47;53.24;101598.56;5038155;28;46275;-53
2021/12/11 09:47:41;;;;;;;;;8.00;7.00;;;;;11.18;53.21;101598.38;5038648;28;45473;-58
2021/12/11 09:50:23;;;;;;;;;12.00;7.67;;;;;10.96;54.63;101596.66;5038789;28;45171;-58
2021/12/11 09:52:49;;;;;;;;;9.33;5.00;;;;;10.74;54.63;101594.91;5038682;28;45364;-56
2021/12/11 09:55:26;;;;;;;;;6.00;6.00;;;;;10.63;54.89;101605.63;5038689;28;45333;-57
2021/12/11 09:57:56;;;;;;;;;11.33;7.00;;;;;10.57;54.99;101601.63;5038430;28;45461;-57
2021/12/11 10:00:28;;;;;;;;;4.33;2.67;;;;;10.48;55.04;101608.56;5038534;28;45576;-45
2021/12/11 10:02:53;;;;;;;;;9.67;8.33;;;;;10.42;55.32;101617.03;5038328;28;45220;-43
2021/12/11 10:05:31;;;;;;;;;10.67;6.00;;;;;10.48;55.60;101618.34;5038693;28;45355;-58
2021/12/11 10:11:01;;;;;;;;;4.33;3.00;;;;;10.76;54.92;101624.94;5038612;28;45341;-49
2021/12/11 10:13:27;;;;;;;;;7.00;6.00;;;;;10.82;54.93;101627.06;5038453;28;45424;-43
2021/12/11 10:15:53;;;;;;;;;7.67;3.00;;;;;11.06;53.79;101618.88;5038450;28;45366;-51
2021/12/11 10:18:22;;;;;;;;;10.00;6.67;;;;;11.12;53.81;101634.31;5038057;28;46168;-42
2021/12/11 10:20:55;;;;;;;;;6.67;6.00;;;;;11.19;53.57;101618.69;5037635;28;45176;-54
2021/12/11 10:23:26;;;;;;;;;8.00;3.00;;;;;11.04;53.75;101620.84;5037351;28;45421;-54
2021/12/11 10:25:53;;;;;;;;;6.00;5.00;;;;;10.89;53.79;101628.25;5037711;28;45907;-51
2021/12/11 10:28:23;;;;;;;;;10.67;5.00;;;;;10.73;54.77;101628.69;5038173;28;45391;-45
2021/12/11 10:30:53;;;;;;;;;7.67;6.00;;;;;10.57;54.41;101620.25;5038377;28;45371;-43
2021/12/11 10:33:23;;;;;;;;;9.67;4.33;;;;;10.55;54.55;101634.69;5038215;28;45344;-43
2021/12/11 10:35:52;;;;;;;;;7.00;5.67;;;;;10.40;54.98;101618.97;5038029;28;45413;-45
2021/12/11 10:38:18;;;;;;;;;6.00;2.67;;;;;10.39;54.91;101629.75;5037569;28;46383;-42
2021/12/11 10:40:47;;;;;;;;;5.33;5.00;;;;;10.37;54.88;101621.06;5038077;28;45422;-59
2021/12/11 10:43:24;;;;;;;;;9.00;3.00;;;;;10.60;54.87;101635.97;5038022;28;45291;-44
2021/12/11 10:45:52;;;;;;;;;4.33;4.33;;;;;10.93;54.11;101634.19;5038287;28;45508;-58
2021/12/11 10:48:23;;;;;;;;;5.00;5.00;;;;;11.14;53.80;101642.19;5037435;28;46188;-43
2021/12/11 10:50:55;;;;;;;;;7.00;5.00;;;;;11.17;53.30;101650.78;5037998;28;45307;-45
2021/12/11 10:53:25;;;;;;;;;12.00;6.67;;;;;11.27;53.47;101644.69;5037626;28;45408;-59
2021/12/11 10:55:53;;;;;;;;;10.00;7.00;;;;;12.98;50.45;101633.13;5037144;28;45558;-45
2021/12/11 10:58:24;;;;;;;;;8.00;7.00;;;;;13.72;49.18;101637.81;5038144;28;45427;-44
2021/12/11 11:01:05;;;;;;;;;9.00;7.00;;;;;13.97;47.77;101636.31;5038053;28;45366;-59
2021/12/11 11:03:33;;;;;;;;;6.00;6.00;;;;;15.33;46.31;101634.59;5038184;28;45500;-44
2021/12/11 11:05:59;;;;;;;;;6.00;6.00;;;;;16.54;42.45;101635.41;5038161;28;45459;-44
2021/12/11 11:08:24;;;;;;;;;4.33;4.00;;;;;17.33;40.72;101636.69;5037922;28;47133;-42
2021/12/11 11:10:55;;;;;;;;;7.67;4.00;;;;;17.64;39.81;101631.44;5037837;28;45823;-42
2021/12/11 11:13:23;;;;;;;;;8.00;7.00;;;;;17.64;39.36;101639.50;5038023;28;45788;-50
2021/12/11 11:15:49;;;;;;;;;7.33;7.33;;;;;17.85;39.65;101636.28;5038195;28;45208;-43
2021/12/11 11:18:17;;;;;;;;;8.00;8.00;;;;;17.72;39.90;101636.81;5037513;28;45399;-60
2021/12/11 11:20:52;;;;;;;;;8.00;8.00;;;;;17.33;41.21;101632.16;5037931;28;45384;-45
2021/12/11 11:23:18;;;;;;;;;10.67;6.67;;;;;17.71;39.37;101632.44;5038038;28;45457;-45
2021/12/11 11:25:48;;;;;;;;;12.67;9.33;;;;;17.66;40.19;101632.97;5037659;28;45384;-45
2021/12/11 11:28:17;;;;;;;;;10.33;8.33;;;;;18.22;38.50;101622.19;5019886;28;47452;-51
2021/12/11 11:30:48;;;;;;;;;10.67;7.33;;;;;17.57;38.93;101628.59;5037700;28;45422;-46
2021/12/11 11:33:15;;;;;;;;;11.67;8.33;;;;;16.69;40.20;101626.56;5037628;28;45233;-46
2021/12/11 11:35:44;;;;;;;;;5.67;5.00;;;;;15.82;41.88;101624.22;5037858;28;45309;-59
2021/12/11 11:38:16;;;;;;;;;11.67;9.67;;;;;15.13;43.83;101626.75;5037462;28;46260;-46
2021/12/11 11:40:46;;;;;;;;;9.33;4.67;;;;;14.37;45.47;101637.00;5037609;28;45401;-44
2021/12/11 11:43:13;;;;;;;;;10.00;9.00;;;;;13.76;45.98;101645.56;5036422;28;45473;-43
2021/12/11 11:45:39;;;;;;;;;8.33;8.00;;;;;13.25;47.28;101649.47;5037822;28;45211;-46
2021/12/11 11:48:06;;;;;;;;;9.00;6.33;;;;;12.84;48.10;101638.88;5037336;28;45377;-44
2021/12/11 11:50:42;;;;;;;;;12.00;7.00;;;;;12.55;48.93;101646.00;5037449;28;45336;-44
2021/12/11 11:53:09;;;;;;;;;9.67;6.67;;;;;12.23;49.24;101658.56;5037551;28;45340;-47
2021/12/11 11:55:49;;;;;;;;;9.00;7.00;;;;;11.97;50.18;101652.00;5036977;28;45508;-53
2021/12/11 11:58:16;;;;;;;;;8.33;7.00;;;;;11.84;51.18;101659.34;5036423;28;45421;-53
2021/12/11 12:00:49;;;;;;;;;6.33;6.00;;;;;11.68;51.30;101654.50;5037991;28;45279;-45
2021/12/11 12:03:17;;;;;;;;;11.33;5.67;;;;;11.56;51.34;101652.88;5038272;28;45251;-59